createdAt,value
2023-04-14T00:00:59.155Z,16.36
2023-04-14T00:03:26.223Z,16.38
2023-04-14T00:05:52.994Z,16.36
2023-04-14T00:08:19.705Z,16.35
2023-04-14T00:10:46.408Z,16.32
2023-04-14T00:13:12.853Z,16.32
2023-04-14T00:15:42.661Z,16.31
2023-04-14T00:18:09.323Z,16.30
2023-04-14T00:20:35.951Z,16.27
2023-04-14T00:23:02.443Z,16.26
2023-04-14T00:25:28.942Z,16.21
2023-04-14T00:27:55.656Z,16.22
2023-04-14T00:30:22.543Z,16.21
2023-04-14T00:32:49.028Z,16.16
2023-04-14T00:35:15.992Z,16.17
2023-04-14T00:37:42.640Z,16.17
2023-04-14T00:40:09.893Z,16.14
2023-04-14T00:42:43.489Z,16.13
2023-04-14T00:45:10.409Z,16.08
2023-04-14T00:47:37.547Z,16.09
2023-04-14T00:50:04.866Z,16.06
2023-04-14T00:52:32.007Z,16.06
2023-04-14T00:54:59.417Z,16.06
2023-04-14T00:57:26.949Z,16.04
2023-04-14T00:59:53.789Z,16.04
2023-04-14T01:02:20.676Z,16.04
2023-04-14T01:04:54.439Z,15.99
2023-04-14T01:07:22.279Z,15.99
2023-04-14T01:09:49.174Z,15.98
2023-04-14T01:12:21.618Z,15.96
2023-04-14T01:14:55.710Z,15.93
2023-04-14T01:17:35.791Z,15.90
2023-04-14T01:20:22.077Z,15.92
2023-04-14T01:22:51.561Z,15.90
2023-04-14T01:25:22.256Z,15.89
2023-04-14T01:27:54.770Z,15.86
2023-04-14T01:30:39.943Z,15.86
2023-04-14T01:33:08.630Z,15.85
2023-04-14T01:35:38.446Z,15.84
2023-04-14T01:38:08.751Z,15.81
2023-04-14T01:40:36.414Z,15.81
2023-04-14T01:43:05.723Z,15.80
2023-04-14T01:45:36.887Z,15.78
2023-04-14T01:48:06.469Z,15.78
2023-04-14T01:50:34.796Z,15.76
2023-04-14T01:53:05.094Z,15.74
2023-04-14T01:55:33.368Z,15.73
2023-04-14T01:58:01.321Z,15.72
2023-04-14T02:00:29.945Z,15.71
2023-04-14T02:02:58.209Z,15.71
2023-04-14T02:05:27.565Z,15.71
2023-04-14T02:07:54.994Z,15.70
2023-04-14T02:10:23.392Z,15.68
2023-04-14T02:12:51.622Z,15.67
2023-04-14T02:15:18.990Z,15.65
2023-04-14T02:17:48.781Z,15.63
2023-04-14T02:20:16.139Z,15.63
2023-04-14T02:22:42.952Z,15.61
2023-04-14T02:25:09.924Z,15.60
2023-04-14T02:27:37.429Z,15.56
2023-04-14T02:30:08.548Z,15.59
2023-04-14T02:32:39.349Z,15.56
2023-04-14T02:35:16.844Z,15.56
2023-04-14T02:37:49.065Z,15.54
2023-04-14T02:40:21.890Z,15.52
2023-04-14T02:42:51.005Z,15.53
2023-04-14T02:45:23.143Z,15.50
2023-04-14T02:47:54.744Z,15.52
2023-04-14T02:50:22.491Z,15.47
2023-04-14T02:53:02.613Z,15.46
2023-04-14T02:55:34.242Z,15.48
2023-04-14T02:58:01.211Z,15.46
2023-04-14T03:00:33.420Z,15.45
2023-04-14T03:03:01.358Z,15.43
2023-04-14T03:05:29.360Z,15.42
2023-04-14T03:08:03.521Z,15.41
2023-04-14T03:10:31.035Z,15.41
2023-04-14T03:12:58.798Z,15.43
2023-04-14T03:15:25.988Z,15.40
2023-04-14T03:17:56.783Z,15.39
2023-04-14T03:20:25.917Z,15.38
2023-04-14T03:23:06.496Z,15.36
2023-04-14T03:25:41.856Z,15.38
2023-04-14T03:28:19.384Z,15.37
2023-04-14T03:30:50.920Z,15.34
2023-04-14T03:33:20.572Z,15.32
2023-04-14T03:35:48.057Z,15.34
2023-04-14T03:38:15.501Z,15.33
2023-04-14T03:40:44.320Z,15.31
2023-04-14T03:43:12.744Z,15.31
2023-04-14T03:45:41.636Z,15.30
2023-04-14T03:48:12.641Z,15.30
2023-04-14T03:50:46.537Z,15.28
2023-04-14T03:53:14.991Z,15.26
2023-04-14T03:55:43.739Z,15.28
2023-04-14T03:58:11.665Z,15.25
2023-04-14T04:00:39.866Z,15.24
2023-04-14T04:03:06.495Z,15.24
2023-04-14T04:05:33.849Z,15.22
2023-04-14T04:08:03.656Z,15.21
2023-04-14T04:10:34.199Z,15.22
2023-04-14T04:13:02.141Z,15.20
2023-04-14T04:15:31.150Z,15.18
2023-04-14T04:17:58.429Z,15.20
2023-04-14T04:20:26.053Z,15.18
2023-04-14T04:22:55.590Z,15.17
2023-04-14T04:25:22.719Z,15.16
2023-04-14T04:27:59.734Z,15.13
2023-04-14T04:30:27.761Z,15.15
2023-04-14T04:32:54.729Z,15.14
2023-04-14T04:35:22.302Z,15.12
2023-04-14T04:37:49.785Z,15.11
2023-04-14T04:40:17.171Z,15.11
2023-04-14T04:42:45.059Z,15.11
2023-04-14T04:45:19.485Z,15.07
2023-04-14T04:47:46.171Z,15.09
2023-04-14T04:50:13.779Z,15.09
2023-04-14T04:52:40.594Z,15.06
2023-04-14T04:55:07.362Z,15.03
2023-04-14T04:57:34.007Z,15.03
2023-04-14T05:00:00.738Z,15.03
2023-04-14T05:02:27.586Z,15.02
2023-04-14T05:04:54.238Z,15.01
2023-04-14T05:07:21.146Z,14.98
2023-04-14T05:09:47.922Z,14.98
2023-04-14T05:12:14.537Z,14.97
2023-04-14T05:14:41.099Z,14.95
2023-04-14T05:17:07.753Z,14.95
2023-04-14T05:19:34.367Z,14.91
2023-04-14T05:22:01.583Z,14.91
2023-04-14T05:24:28.286Z,14.92
2023-04-14T05:27:12.498Z,14.89
2023-04-14T05:29:40.096Z,14.87
2023-04-14T05:32:06.620Z,14.88
2023-04-14T05:34:33.202Z,14.88
2023-04-14T05:36:59.760Z,14.86
2023-04-14T05:39:26.364Z,14.85
2023-04-14T05:41:53.785Z,14.83
2023-04-14T05:44:20.493Z,14.84
2023-04-14T05:46:47.259Z,14.82
2023-04-14T05:49:13.910Z,14.83
2023-04-14T05:51:40.729Z,14.81
2023-04-14T05:54:07.318Z,14.80
2023-04-14T05:56:34.388Z,14.81
2023-04-14T05:59:01.594Z,14.79
2023-04-14T06:01:28.245Z,14.77
2023-04-14T06:03:54.941Z,14.77
2023-04-14T06:06:21.817Z,14.77
2023-04-14T06:08:48.302Z,14.76
2023-04-14T06:11:14.887Z,14.79
2023-04-14T06:13:41.493Z,14.83
2023-04-14T06:16:08.283Z,14.97
2023-04-14T06:18:34.819Z,15.04
2023-04-14T06:21:01.775Z,15.11
2023-04-14T06:23:28.474Z,15.15
2023-04-14T06:25:55.666Z,15.15
2023-04-14T06:28:24.211Z,15.20
2023-04-14T06:30:51.019Z,15.29
2023-04-14T06:33:17.797Z,15.48
2023-04-14T06:35:45.215Z,15.51
2023-04-14T06:38:11.954Z,15.62
2023-04-14T06:40:38.608Z,15.83
2023-04-14T06:43:06.134Z,16.00
2023-04-14T06:45:32.837Z,16.14
2023-04-14T06:47:59.502Z,16.33
2023-04-14T06:50:26.242Z,16.43
2023-04-14T06:52:52.801Z,16.51
2023-04-14T06:55:21.665Z,16.67
2023-04-14T06:57:48.173Z,16.68
2023-04-14T07:00:14.912Z,16.74
2023-04-14T07:02:41.746Z,16.84
2023-04-14T07:05:08.759Z,16.75
2023-04-14T07:07:40.337Z,16.74
2023-04-14T07:10:07.355Z,16.74
2023-04-14T07:12:34.080Z,16.81
2023-04-14T07:15:00.864Z,16.90
2023-04-14T07:17:27.607Z,16.90
2023-04-14T07:19:54.291Z,16.93
2023-04-14T07:22:20.980Z,16.96
2023-04-14T07:24:47.526Z,16.99
2023-04-14T07:27:15.624Z,17.00
2023-04-14T07:29:42.658Z,17.01
2023-04-14T07:32:09.216Z,17.01
2023-04-14T07:34:35.844Z,17.02
2023-04-14T07:37:02.480Z,17.02
2023-04-14T07:39:29.515Z,17.09
2023-04-14T07:41:58.727Z,17.16
2023-04-14T07:44:25.321Z,17.27
2023-04-14T07:46:51.975Z,17.32
2023-04-14T07:49:18.794Z,17.37
2023-04-14T07:51:45.355Z,17.35
2023-04-14T07:54:12.130Z,17.34
2023-04-14T07:56:38.690Z,17.41
2023-04-14T07:59:05.385Z,17.41
2023-04-14T08:01:32.217Z,17.44
2023-04-14T08:03:58.883Z,17.45
2023-04-14T08:06:26.810Z,17.46
2023-04-14T08:08:53.698Z,17.41
2023-04-14T08:11:20.339Z,17.43
2023-04-14T08:13:47.003Z,17.45
2023-04-14T08:16:13.685Z,17.45
2023-04-14T08:18:40.945Z,17.46
2023-04-14T08:21:07.562Z,17.48
2023-04-14T08:23:34.305Z,17.50
2023-04-14T08:26:00.887Z,17.48
2023-04-14T08:28:30.793Z,17.47
2023-04-14T08:30:57.311Z,17.45
2023-04-14T08:33:23.921Z,17.49
2023-04-14T08:35:59.855Z,17.50
2023-04-14T08:38:27.786Z,17.50
2023-04-14T08:40:57.404Z,17.57
2023-04-14T08:43:24.154Z,17.61
2023-04-14T08:45:51.849Z,17.57
2023-04-14T08:48:20.080Z,17.58
2023-04-14T08:50:56.721Z,17.59
2023-04-14T08:53:23.685Z,17.61
2023-04-14T08:55:50.710Z,17.57
2023-04-14T08:58:17.434Z,17.57
2023-04-14T09:00:44.108Z,17.59
2023-04-14T09:03:11.539Z,17.58
2023-04-14T09:05:38.347Z,17.60
2023-04-14T09:08:04.991Z,17.62
2023-04-14T09:10:31.833Z,17.62
2023-04-14T09:12:58.803Z,17.63
2023-04-14T09:15:28.726Z,17.68
2023-04-14T09:17:55.714Z,17.76
2023-04-14T09:20:36.526Z,17.78
2023-04-14T09:23:07.677Z,17.85
2023-04-14T09:25:34.286Z,17.80
2023-04-14T09:28:01.068Z,17.85
2023-04-14T09:30:28.790Z,17.88
2023-04-14T09:32:56.965Z,17.89
2023-04-14T09:35:42.210Z,17.91
2023-04-14T09:38:08.737Z,17.91
2023-04-14T09:40:35.554Z,17.93
2023-04-14T09:43:02.283Z,18.00
2023-04-14T09:45:44.888Z,18.01
2023-04-14T09:48:15.025Z,17.98
2023-04-14T09:50:56.099Z,18.03
2023-04-14T09:53:32.247Z,18.07
2023-04-14T09:56:00.151Z,18.14
2023-04-14T09:58:36.599Z,18.09
2023-04-14T10:01:04.926Z,18.17
2023-04-14T10:03:33.350Z,18.19
2023-04-14T10:06:01.596Z,18.19
2023-04-14T10:08:38.361Z,18.21
2023-04-14T10:11:21.213Z,18.24
2023-04-14T10:13:49.010Z,18.25
2023-04-14T10:16:15.905Z,18.28
2023-04-14T10:18:42.957Z,18.24
2023-04-14T10:21:10.045Z,18.26
2023-04-14T10:23:38.326Z,18.33
2023-04-14T10:26:06.429Z,18.30
2023-04-14T10:28:34.429Z,18.31
2023-04-14T10:31:02.010Z,18.33
2023-04-14T10:33:29.471Z,18.32
2023-04-14T10:36:01.883Z,18.36
2023-04-14T10:38:42.419Z,18.32
2023-04-14T10:41:09.194Z,18.35
2023-04-14T10:43:37.853Z,18.33
2023-04-14T10:46:05.347Z,18.40
2023-04-14T10:48:33.424Z,18.44
2023-04-14T10:51:01.699Z,18.44
2023-04-14T10:53:34.156Z,18.44
2023-04-14T10:56:02.396Z,18.43
2023-04-14T10:58:29.414Z,18.41
2023-04-14T11:00:59.114Z,18.42
2023-04-14T11:03:30.481Z,18.49
2023-04-14T11:05:58.221Z,18.50
2023-04-14T11:08:26.419Z,18.49
2023-04-14T11:11:02.545Z,18.45
2023-04-14T11:13:30.514Z,18.50
2023-04-14T11:16:06.792Z,18.54
2023-04-14T11:18:33.859Z,18.53
2023-04-14T11:21:12.988Z,18.53
2023-04-14T11:23:39.673Z,18.52
2023-04-14T11:26:07.135Z,18.57
2023-04-14T11:28:35.230Z,18.60
2023-04-14T11:31:03.534Z,18.66
2023-04-14T11:33:34.510Z,18.67
2023-04-14T11:36:02.201Z,18.61
2023-04-14T11:38:28.970Z,18.73
2023-04-14T11:40:56.922Z,18.88
2023-04-14T11:43:24.274Z,18.69
2023-04-14T11:45:51.378Z,18.58
2023-04-14T11:48:19.396Z,18.50
2023-04-14T11:50:47.440Z,18.53
2023-04-14T11:53:15.897Z,18.50
2023-04-14T11:55:46.891Z,18.47
2023-04-14T11:58:14.330Z,18.48
2023-04-14T12:00:41.351Z,18.44
2023-04-14T12:03:08.953Z,18.44
2023-04-14T12:05:36.343Z,18.45
2023-04-14T12:08:04.399Z,18.47
2023-04-14T12:10:31.652Z,18.42
2023-04-14T12:13:02.265Z,18.39
2023-04-14T12:15:30.308Z,18.39
2023-04-14T12:17:57.312Z,18.40
2023-04-14T12:20:24.575Z,18.40
2023-04-14T12:22:51.726Z,18.39
2023-04-14T12:25:18.369Z,18.38
2023-04-14T12:27:50.779Z,18.35
2023-04-14T12:30:20.786Z,18.35
2023-04-14T12:32:47.297Z,18.33
2023-04-14T12:35:13.915Z,18.34
2023-04-14T12:37:47.112Z,18.35
2023-04-14T12:40:13.735Z,18.35
2023-04-14T12:42:44.049Z,18.33
2023-04-14T12:45:11.129Z,18.30
2023-04-14T12:47:37.870Z,18.32
2023-04-14T12:50:24.144Z,18.38
2023-04-14T12:52:51.508Z,18.36
2023-04-14T12:55:25.494Z,18.32
2023-04-14T12:57:53.452Z,18.35
2023-04-14T13:00:21.352Z,18.34
2023-04-14T13:02:48.207Z,18.34
2023-04-14T13:05:15.677Z,18.37
2023-04-14T13:07:42.746Z,18.33
2023-04-14T13:10:10.062Z,18.40
2023-04-14T13:12:37.029Z,18.39
2023-04-14T13:15:04.091Z,18.39
2023-04-14T13:17:31.058Z,18.39
2023-04-14T13:19:57.811Z,18.40
2023-04-14T13:22:24.470Z,18.38
2023-04-14T13:24:51.723Z,18.40
2023-04-14T13:27:19.201Z,18.43
2023-04-14T13:29:46.204Z,18.40
2023-04-14T13:32:12.884Z,18.38
2023-04-14T13:34:40.116Z,18.39
2023-04-14T13:37:06.759Z,18.43
2023-04-14T13:39:33.410Z,18.41
2023-04-14T13:42:00.000Z,18.44
2023-04-14T13:44:26.500Z,18.48
2023-04-14T13:46:53.289Z,18.51
2023-04-14T13:49:20.347Z,18.53
2023-04-14T13:51:47.638Z,18.55
2023-04-14T13:54:14.281Z,18.57
2023-04-14T13:56:40.993Z,18.60
2023-04-14T13:59:08.191Z,18.66
2023-04-14T14:01:34.955Z,18.65
2023-04-14T14:04:01.999Z,18.69
2023-04-14T14:06:29.049Z,18.72
2023-04-14T14:09:06.279Z,18.74
2023-04-14T14:11:34.452Z,18.82
2023-04-14T14:14:01.351Z,18.84
2023-04-14T14:18:57.808Z,18.88
2023-04-14T14:21:24.447Z,18.91
2023-04-14T14:23:51.177Z,19.05
2023-04-14T14:26:19.235Z,18.94
2023-04-14T14:28:47.172Z,18.92
2023-04-14T14:31:14.385Z,18.90
2023-04-14T14:33:41.258Z,18.89
2023-04-14T14:36:07.944Z,18.83
2023-04-14T14:38:34.602Z,18.88
2023-04-14T14:41:01.277Z,18.88
2023-04-14T14:43:27.822Z,18.82
2023-04-14T14:45:54.687Z,18.82
2023-04-14T14:48:21.599Z,18.74
2023-04-14T14:50:48.301Z,18.78
2023-04-14T14:53:15.010Z,18.75
2023-04-14T14:55:41.538Z,18.80
2023-04-14T14:58:08.469Z,18.75
2023-04-14T15:00:35.777Z,18.78
2023-04-14T15:03:02.665Z,18.80
2023-04-14T15:05:29.453Z,18.82
2023-04-14T15:07:56.063Z,18.88
2023-04-14T15:10:22.765Z,18.84
2023-04-14T15:12:49.488Z,18.88
2023-04-14T15:15:18.983Z,18.90
2023-04-14T15:17:46.168Z,18.94
2023-04-14T15:20:13.202Z,18.92
2023-04-14T15:22:39.859Z,18.95
2023-04-14T15:25:07.067Z,18.95
2023-04-14T15:27:33.805Z,18.94
2023-04-14T15:30:00.536Z,18.97
2023-04-14T15:32:27.511Z,18.95
2023-04-14T15:34:54.632Z,18.94
2023-04-14T15:37:21.439Z,18.92
2023-04-14T15:39:48.052Z,18.95
2023-04-14T15:42:14.605Z,18.96
2023-04-14T15:44:41.093Z,18.93
2023-04-14T15:47:07.726Z,18.96
2023-04-14T15:49:34.170Z,18.95
2023-04-14T15:52:00.716Z,18.94
2023-04-14T15:54:27.601Z,18.92
2023-04-14T15:56:54.117Z,18.90
2023-04-14T15:59:21.240Z,18.91
2023-04-14T16:01:47.985Z,18.89
2023-04-14T16:04:14.713Z,18.90
2023-04-14T16:06:41.338Z,18.90
2023-04-14T16:09:07.908Z,18.91
2023-04-14T16:11:34.628Z,18.98
2023-04-14T16:14:01.408Z,18.95
2023-04-14T16:16:28.604Z,18.97
2023-04-14T16:18:55.249Z,19.01
2023-04-14T16:21:21.919Z,19.02
2023-04-14T16:23:48.631Z,19.01
2023-04-14T16:26:16.788Z,19.06
2023-04-14T16:28:43.751Z,19.07
2023-04-14T16:31:10.450Z,19.07
2023-04-14T16:33:40.050Z,19.08
2023-04-14T16:36:07.552Z,19.09
2023-04-14T16:38:34.241Z,19.12
2023-04-14T16:41:01.205Z,19.15
2023-04-14T16:43:28.083Z,19.14
2023-04-14T16:46:01.239Z,19.15
2023-04-14T16:48:27.799Z,19.16
2023-04-14T16:50:54.596Z,19.09
2023-04-14T16:53:21.777Z,19.09
2023-04-14T16:55:48.412Z,19.13
2023-04-14T16:58:15.095Z,19.13
2023-04-14T17:00:42.185Z,19.11
2023-04-14T17:03:08.832Z,19.08
2023-04-14T17:05:35.680Z,19.07
2023-04-14T17:08:03.620Z,19.03
2023-04-14T17:10:31.220Z,18.99
2023-04-14T17:12:57.907Z,18.99
2023-04-14T17:15:24.631Z,18.98
2023-04-14T17:17:51.349Z,18.93
2023-04-14T17:20:18.226Z,18.86
2023-04-14T17:22:44.734Z,18.86
2023-04-14T17:25:12.617Z,18.82
2023-04-14T17:27:39.200Z,18.77
2023-04-14T17:30:07.186Z,18.71
2023-04-14T17:32:33.742Z,18.69
2023-04-14T17:35:00.739Z,18.64
2023-04-14T17:37:28.427Z,18.60
2023-04-14T17:39:56.533Z,18.60
2023-04-14T17:42:25.181Z,18.53
2023-04-14T17:44:52.237Z,18.50
2023-04-14T17:47:21.518Z,18.49
2023-04-14T17:49:49.970Z,18.43
2023-04-14T17:52:19.581Z,18.42
2023-04-14T17:54:46.588Z,18.36
2023-04-14T17:57:13.385Z,18.35
2023-04-14T17:59:41.598Z,18.33
2023-04-14T18:02:09.103Z,18.30
2023-04-14T18:04:39.349Z,18.28
2023-04-14T18:07:06.410Z,18.24
2023-04-14T18:09:33.094Z,18.25
2023-04-14T18:11:59.913Z,18.22
2023-04-14T18:14:26.603Z,18.21
2023-04-14T18:16:53.709Z,18.21
2023-04-14T18:19:20.705Z,18.17
2023-04-14T18:21:47.808Z,18.15
2023-04-14T18:26:43.994Z,18.09
2023-04-14T18:29:10.815Z,18.10
2023-04-14T18:31:38.022Z,18.09
2023-04-14T18:34:05.306Z,18.07
2023-04-14T18:36:32.689Z,18.05
2023-04-14T18:39:00.339Z,18.04
2023-04-14T18:41:27.293Z,17.99
2023-04-14T18:43:54.138Z,17.99
2023-04-14T18:46:21.621Z,17.97
2023-04-14T18:48:49.325Z,17.93
2023-04-14T18:51:16.727Z,17.91
2023-04-14T18:53:45.240Z,17.90
2023-04-14T18:56:12.548Z,17.87
2023-04-14T18:58:40.001Z,17.88
2023-04-14T19:01:06.909Z,17.88
2023-04-14T19:03:33.428Z,17.90
2023-04-14T19:06:00.170Z,17.89
2023-04-14T19:08:27.311Z,17.86
2023-04-14T19:10:54.086Z,17.81
2023-04-14T19:13:20.879Z,17.79
2023-04-14T19:15:47.446Z,17.77
2023-04-14T19:18:15.086Z,17.75
2023-04-14T19:20:41.881Z,17.75
2023-04-14T19:23:08.782Z,17.71
2023-04-14T19:25:38.618Z,17.70
2023-04-14T19:28:06.739Z,17.68
2023-04-14T19:30:33.674Z,17.65
2023-04-14T19:33:00.602Z,17.64
2023-04-14T19:35:27.717Z,17.61
2023-04-14T19:37:56.594Z,17.60
2023-04-14T19:40:23.128Z,17.59
2023-04-14T19:42:49.697Z,17.57
2023-04-14T19:45:16.177Z,17.54
2023-04-14T19:47:42.759Z,17.53
2023-04-14T19:50:09.873Z,17.50
2023-04-14T19:52:36.673Z,17.50
2023-04-14T19:55:03.398Z,17.48
2023-04-14T19:57:30.089Z,17.48
2023-04-14T19:59:57.037Z,17.46
2023-04-14T20:02:25.530Z,17.44
2023-04-14T20:04:57.132Z,17.43
2023-04-14T20:07:23.782Z,17.39
2023-04-14T20:09:50.339Z,17.39
2023-04-14T20:12:17.038Z,17.36
2023-04-14T20:14:44.868Z,17.37
2023-04-14T20:17:12.525Z,17.37
2023-04-14T20:19:39.187Z,17.32
2023-04-14T20:22:06.549Z,17.32
2023-04-14T20:24:33.075Z,17.30
2023-04-14T20:26:59.575Z,17.30
2023-04-14T20:29:26.091Z,17.27
2023-04-14T20:31:53.537Z,17.25
2023-04-14T20:34:20.297Z,17.24
2023-04-14T20:36:47.313Z,17.23
2023-04-14T20:39:13.884Z,17.22
2023-04-14T20:41:40.604Z,17.19
2023-04-14T20:44:07.487Z,17.20
2023-04-14T20:46:34.397Z,17.16
2023-04-14T20:49:02.657Z,17.15
2023-04-14T20:51:30.051Z,17.13
2023-04-14T20:53:56.963Z,17.13
2023-04-14T20:56:27.177Z,17.11
2023-04-14T20:58:53.948Z,17.11
2023-04-14T21:01:20.511Z,17.08
2023-04-14T21:03:47.405Z,17.09
2023-04-14T21:06:14.071Z,17.06
2023-04-14T21:08:40.729Z,17.05
2023-04-14T21:11:16.601Z,17.05
2023-04-14T21:15:27.180Z,17.04
2023-04-14T21:16:32.802Z,17.01
2023-04-14T21:18:59.572Z,17.02
2023-04-14T21:21:27.090Z,17.01
2023-04-14T21:23:53.871Z,16.99
2023-04-14T21:26:20.504Z,16.97
2023-04-14T21:28:47.066Z,16.97
2023-04-14T21:31:13.682Z,16.98
2023-04-14T21:33:41.644Z,16.94
2023-04-14T21:36:09.824Z,16.94
2023-04-14T21:38:37.431Z,16.93
2023-04-14T21:41:03.954Z,16.92
2023-04-14T21:43:30.907Z,16.90
2023-04-14T21:45:57.979Z,16.91
2023-04-14T21:48:25.269Z,16.90
2023-04-14T21:50:51.953Z,16.88
2023-04-14T21:53:19.212Z,16.86
2023-04-14T21:55:46.339Z,16.86
2023-04-14T21:58:13.112Z,16.84
2023-04-14T22:00:41.113Z,16.85
2023-04-14T22:03:08.108Z,16.82
2023-04-14T22:05:34.953Z,16.81
2023-04-14T22:08:01.493Z,16.79
2023-04-14T22:10:32.150Z,16.80
2023-04-14T22:12:59.686Z,16.79
2023-04-14T22:15:27.490Z,16.79
2023-04-14T22:17:54.203Z,16.77
2023-04-14T22:20:23.132Z,16.76
2023-04-14T22:22:49.802Z,16.76
2023-04-14T22:25:16.728Z,16.75
2023-04-14T22:27:43.300Z,16.75
2023-04-14T22:30:10.206Z,16.74
2023-04-14T22:32:37.342Z,16.72
2023-04-14T22:35:04.175Z,16.70
2023-04-14T22:37:30.777Z,16.70
2023-04-14T22:39:57.729Z,16.69
2023-04-14T22:42:25.882Z,16.70
2023-04-14T22:44:53.622Z,16.68
2023-04-14T22:47:20.801Z,16.65
2023-04-14T22:49:47.580Z,16.65
2023-04-14T22:52:14.327Z,16.64
2023-04-14T22:54:41.646Z,16.64
2023-04-14T22:57:09.198Z,16.62
2023-04-14T22:59:35.819Z,16.62
2023-04-14T23:02:02.495Z,16.62
2023-04-14T23:04:29.272Z,16.60
2023-04-14T23:06:55.830Z,16.59
2023-04-14T23:09:22.471Z,16.58
2023-04-14T23:11:49.387Z,16.59
2023-04-14T23:14:16.175Z,16.56
2023-04-14T23:16:43.809Z,16.55
2023-04-14T23:19:10.409Z,16.55
2023-04-14T23:21:37.111Z,16.52
2023-04-14T23:24:03.770Z,16.51
2023-04-14T23:26:31.091Z,16.51
2023-04-14T23:28:57.748Z,16.51
2023-04-14T23:31:24.439Z,16.48
2023-04-14T23:33:52.825Z,16.46
2023-04-14T23:36:19.575Z,16.47
2023-04-14T23:38:46.137Z,16.47
2023-04-14T23:41:12.968Z,16.45
2023-04-14T23:43:39.683Z,16.46
2023-04-14T23:46:06.435Z,16.44
2023-04-14T23:48:33.121Z,16.43
2023-04-14T23:51:09.439Z,16.43
2023-04-14T23:53:41.442Z,16.42
2023-04-14T23:56:08.266Z,16.43
2023-04-14T23:58:34.832Z,16.39
